Airfield :
LOGIN :

Register | Disclaimer

   EN    FR    IT 

 










Legend :    VFR   Marginal VFR   IFR   Intensive IFR   Very Intensive IFR
Visi :
Ceiling :
>= 8 km
>= 3000ft
5 to 8 km
1000 to 3000 ft
1500m to 5 km
500 to 1000 ft
800 to 1500m
200 to 500 ft
< 800m
< 200 ft
Symbols :   Thunderstorms  Fog  Heavy snow  Heavy precipitations  Wind > 20 kt
SIGMETs :     Misc.  Thunderstorms  Icing  Turbulence  Mountain Waves  Volcanic Ashes







- Airport Elevation : 614 ft
- IATA code : CRL


EBCI - Charleroi

CURRENT METAR :
  • 232020Z 27006KT 220V290 9999 -RA FEW007 SCT012 BKN025 09/08 Q1024 NOSIG

EXPIRED METARs :
  • 231950Z 30003KT 240V020 9999 FEW012 BKN028 09/08 Q1023 NOSIG
  • 231920Z 28003KT 250V340 9999 FEW012 BKN045 09/08 Q1022 NOSIG
  • 231850Z 33005KT 290V360 9999 FEW008 SCT012 BKN045 09/07 Q1022 NOSIG
  • 231820Z 34007KT 310V020 9999 FEW008 SCT012 BKN045 09/07 Q1021 NOSIG
  • 231750Z 35011KT 310V020 9999 -RA SCT008 BKN014 09/08 Q1020 NOSIG

TAF TAF EBCI
Valid from the 23 at 18:00 until the 25 at 00:00 UTC


231700Z 2318/2424 32006KT 8000 SCT015TCU BKN040
TEMPO 2318/2322 4000 SHRA BKN008
PROB30
TEMPO 2402/2407 BKN004
No reported NOTAMs for that airfield.



MET'MAP, your aeronautical weather chart ! - Copyright ORBIFLY December 2007 - Disclaimer

ORBIFLY MET'MAP TEAM :

Programming & Development : Alexandra Zaïnal
Concept & Development : Baudouin d'Aumeries
Co-Development & Prog : Marc-Olivier Méhu
Technical & hardware support : Manuel Goepfert

Contact : metmap@orbifly.com




SOURCES & CREDITS :

   NOAA